createdAt,value
2022-11-24T00:01:27.797Z,83.96
2022-11-24T00:04:03.149Z,84.80
2022-11-24T00:06:31.275Z,84.23
2022-11-24T00:08:58.321Z,84.29
2022-11-24T00:11:27.590Z,84.53
2022-11-24T00:13:54.764Z,84.37
2022-11-24T00:16:35.641Z,85.28
2022-11-24T00:19:08.008Z,84.93
2022-11-24T00:21:35.277Z,84.58
2022-11-24T00:24:02.264Z,84.54
2022-11-24T00:26:33.092Z,84.96
2022-11-24T00:29:02.473Z,85.21
2022-11-24T00:31:30.739Z,84.93
2022-11-24T00:34:00.599Z,85.40
2022-11-24T00:36:29.481Z,85.09
2022-11-24T00:39:05.327Z,86.06
2022-11-24T00:41:32.458Z,85.15
2022-11-24T00:43:59.938Z,85.18
2022-11-24T00:46:27.951Z,85.56
2022-11-24T00:48:55.016Z,85.51
2022-11-24T00:51:23.792Z,85.82
2022-11-24T00:53:50.408Z,85.83
2022-11-24T00:56:16.882Z,85.71
2022-11-24T00:58:43.425Z,85.97
2022-11-24T01:01:14.492Z,86.13
2022-11-24T01:03:42.516Z,86.11
2022-11-24T01:06:18.307Z,86.83
2022-11-24T01:08:45.188Z,86.18
2022-11-24T01:11:17.043Z,86.49
2022-11-24T01:13:45.876Z,86.09
2022-11-24T01:16:24.660Z,87.36
2022-11-24T01:18:51.535Z,86.65
2022-11-24T01:21:18.843Z,86.53
2022-11-24T01:23:45.375Z,86.85
2022-11-24T01:26:16.089Z,86.73
2022-11-24T01:28:47.200Z,86.96
2022-11-24T01:31:14.713Z,86.93
2022-11-24T01:33:41.307Z,86.82
2022-11-24T01:36:07.940Z,86.96
2022-11-24T01:38:34.730Z,87.06
2022-11-24T01:41:17.617Z,87.73
2022-11-24T01:43:45.399Z,86.87
2022-11-24T01:46:22.579Z,87.57
2022-11-24T01:48:58.208Z,87.31
2022-11-24T01:51:28.582Z,87.12
2022-11-24T01:54:00.587Z,87.37
2022-11-24T01:56:28.610Z,87.09
2022-11-24T01:58:59.054Z,87.26
2022-11-24T02:01:25.760Z,86.95
2022-11-24T02:03:52.787Z,87.46
2022-11-24T02:06:27.977Z,87.41
2022-11-24T02:09:03.487Z,87.93
2022-11-24T02:11:37.003Z,87.90
2022-11-24T02:14:06.062Z,87.07
2022-11-24T02:16:35.625Z,87.07
2022-11-24T02:19:08.089Z,87.22
2022-11-24T02:21:34.716Z,86.75
2022-11-24T02:24:16.089Z,87.66
2022-11-24T02:26:45.971Z,86.55
2022-11-24T02:29:14.234Z,86.71
2022-11-24T02:31:59.304Z,86.85
2022-11-24T02:34:25.864Z,86.28
2022-11-24T02:36:52.479Z,86.05
2022-11-24T02:39:19.156Z,86.23
2022-11-24T02:42:00.306Z,87.22
2022-11-24T02:44:33.058Z,86.67
2022-11-24T02:47:07.521Z,86.59
2022-11-24T02:49:34.088Z,86.19
2022-11-24T02:52:01.036Z,86.22
2022-11-24T02:54:27.724Z,86.26
2022-11-24T02:56:54.669Z,86.69
2022-11-24T02:59:21.563Z,87.21
2022-11-24T03:01:48.148Z,87.65
2022-11-24T03:04:14.764Z,87.78
2022-11-24T03:06:41.312Z,88.13
2022-11-24T03:09:07.837Z,87.97
2022-11-24T03:11:34.370Z,87.74
2022-11-24T03:14:01.773Z,87.45
2022-11-24T03:16:28.287Z,87.64
2022-11-24T03:18:54.936Z,87.55
2022-11-24T03:21:21.754Z,87.75
2022-11-24T03:23:52.695Z,88.17
2022-11-24T03:26:21.648Z,88.03
2022-11-24T03:28:48.318Z,88.40
2022-11-24T03:31:15.283Z,88.55
2022-11-24T03:33:44.998Z,88.77
2022-11-24T03:36:11.587Z,88.98
2022-11-24T03:38:38.128Z,89.15
2022-11-24T03:41:04.837Z,89.62
2022-11-24T03:43:31.825Z,90.00
2022-11-24T03:45:58.480Z,89.92
2022-11-24T03:48:25.149Z,89.84
2022-11-24T03:50:59.864Z,90.69
2022-11-24T03:53:28.756Z,90.28
2022-11-24T03:55:55.442Z,90.25
2022-11-24T03:58:22.352Z,90.36
2022-11-24T04:00:50.229Z,90.53
2022-11-24T04:03:16.781Z,90.33
2022-11-24T04:05:43.299Z,90.01
2022-11-24T04:08:09.808Z,90.19
2022-11-24T04:10:38.094Z,90.00
2022-11-24T04:13:10.572Z,90.07
2022-11-24T04:15:40.297Z,90.22
2022-11-24T04:18:07.339Z,89.72
2022-11-24T04:20:34.230Z,89.65
2022-11-24T04:23:00.823Z,89.40
2022-11-24T04:25:27.894Z,89.62
2022-11-24T04:27:56.340Z,89.51
2022-11-24T04:30:24.565Z,89.61
2022-11-24T04:32:51.356Z,89.46
2022-11-24T04:35:18.632Z,89.52
2022-11-24T04:37:45.537Z,89.28
2022-11-24T04:40:13.159Z,89.41
2022-11-24T04:42:39.642Z,89.20
2022-11-24T04:45:07.173Z,89.35
2022-11-24T04:47:34.531Z,89.22
2022-11-24T04:50:01.105Z,89.24
2022-11-24T04:52:27.598Z,88.76
2022-11-24T04:54:54.056Z,88.73
2022-11-24T04:57:23.847Z,89.08
2022-11-24T04:59:51.539Z,88.76
2022-11-24T05:02:18.791Z,88.97
2022-11-24T05:04:46.208Z,89.12
2022-11-24T05:07:18.878Z,88.93
2022-11-24T05:10:05.659Z,88.86
2022-11-24T05:12:32.263Z,88.92
2022-11-24T05:14:59.730Z,88.82
2022-11-24T05:17:30.710Z,89.09
2022-11-24T05:19:57.878Z,88.62
2022-11-24T05:22:24.683Z,88.96
2022-11-24T05:24:51.310Z,88.79
2022-11-24T05:27:17.726Z,88.77
2022-11-24T05:29:44.302Z,88.98
2022-11-24T05:32:10.766Z,88.93
2022-11-24T05:34:37.557Z,89.03
2022-11-24T05:37:04.131Z,88.62
2022-11-24T05:39:36.647Z,88.90
2022-11-24T05:42:25.867Z,88.94
2022-11-24T05:44:53.154Z,88.49
2022-11-24T05:47:20.332Z,88.56
2022-11-24T05:49:46.993Z,88.73
2022-11-24T05:52:14.369Z,88.89
2022-11-24T05:54:40.798Z,89.02
2022-11-24T05:57:07.591Z,88.95
2022-11-24T05:59:35.245Z,88.76
2022-11-24T06:02:01.850Z,88.76
2022-11-24T06:04:28.474Z,88.72
2022-11-24T06:06:54.892Z,89.00
2022-11-24T06:09:21.402Z,88.63
2022-11-24T06:11:48.449Z,88.52
2022-11-24T06:14:14.876Z,88.57
2022-11-24T06:16:41.369Z,88.45
2022-11-24T06:19:09.917Z,88.51
2022-11-24T06:21:36.549Z,88.36
2022-11-24T06:24:03.025Z,88.52
2022-11-24T06:26:29.548Z,88.38
2022-11-24T06:28:56.194Z,87.75
2022-11-24T06:31:23.121Z,87.57
2022-11-24T06:33:49.646Z,87.21
2022-11-24T06:36:16.492Z,87.30
2022-11-24T06:38:43.014Z,86.80
2022-11-24T06:41:15.733Z,87.04
2022-11-24T06:43:45.873Z,86.90
2022-11-24T06:46:13.236Z,86.69
2022-11-24T06:48:39.739Z,86.94
2022-11-24T06:51:08.583Z,86.67
2022-11-24T06:53:38.020Z,86.54
2022-11-24T06:56:12.100Z,86.71
2022-11-24T06:58:42.708Z,86.95
2022-11-24T07:01:09.164Z,87.09
2022-11-24T07:03:35.655Z,87.25
2022-11-24T07:06:02.136Z,87.59
2022-11-24T07:08:28.722Z,87.74
2022-11-24T07:10:55.134Z,88.07
2022-11-24T07:13:21.962Z,87.73
2022-11-24T07:15:48.439Z,88.21
2022-11-24T07:18:14.814Z,87.95
2022-11-24T07:20:41.344Z,88.38
2022-11-24T07:23:07.810Z,88.15
2022-11-24T07:25:34.263Z,88.33
2022-11-24T07:28:01.098Z,88.33
2022-11-24T07:30:28.326Z,88.08
2022-11-24T07:33:03.980Z,88.92
2022-11-24T07:35:30.777Z,88.08
2022-11-24T07:37:58.791Z,88.47
2022-11-24T07:40:26.895Z,88.69
2022-11-24T07:42:54.055Z,88.88
2022-11-24T07:45:20.974Z,89.24
2022-11-24T07:47:47.473Z,89.62
2022-11-24T07:50:14.169Z,89.75
2022-11-24T07:52:40.911Z,89.74
2022-11-24T07:55:08.085Z,90.00
2022-11-24T07:57:35.278Z,89.93
2022-11-24T08:00:02.079Z,90.12
2022-11-24T08:02:28.650Z,90.59
2022-11-24T08:04:55.210Z,90.64
2022-11-24T08:07:21.637Z,90.97
2022-11-24T08:09:50.346Z,91.00
2022-11-24T08:12:21.401Z,91.41
2022-11-24T08:14:51.037Z,92.10
2022-11-24T08:17:18.150Z,91.68
2022-11-24T08:19:45.235Z,91.96
2022-11-24T08:22:11.798Z,91.81
2022-11-24T08:24:38.561Z,92.00
2022-11-24T08:27:05.170Z,92.27
2022-11-24T08:29:32.869Z,92.47
2022-11-24T08:31:59.385Z,93.08
2022-11-24T08:34:28.647Z,93.07
2022-11-24T08:36:55.090Z,93.05
2022-11-24T08:39:21.502Z,93.67
2022-11-24T08:41:47.939Z,94.13
2022-11-24T08:44:18.073Z,94.14
2022-11-24T08:46:45.192Z,94.48
2022-11-24T08:49:13.540Z,94.34
2022-11-24T08:51:40.114Z,94.61
2022-11-24T08:54:06.813Z,94.43
2022-11-24T08:56:33.878Z,94.58
2022-11-24T08:59:00.857Z,94.49
2022-11-24T09:01:28.540Z,94.51
2022-11-24T09:03:55.572Z,94.42
2022-11-24T09:06:25.049Z,94.45
2022-11-24T09:08:53.772Z,94.04
2022-11-24T09:11:20.338Z,94.14
2022-11-24T09:13:46.758Z,94.08
2022-11-24T09:16:19.343Z,94.20
2022-11-24T09:18:46.713Z,93.76
2022-11-24T09:21:16.251Z,93.96
2022-11-24T09:23:44.515Z,93.64
2022-11-24T09:26:19.716Z,93.58
2022-11-24T09:28:47.032Z,93.19
2022-11-24T09:31:15.530Z,93.15
2022-11-24T09:33:42.898Z,93.08
2022-11-24T09:36:09.996Z,92.84
2022-11-24T09:38:37.052Z,92.30
2022-11-24T09:41:40.844Z,93.41
2022-11-24T09:44:24.127Z,92.77
2022-11-24T09:47:13.193Z,93.04
2022-11-24T09:49:58.718Z,92.54
2022-11-24T09:52:46.420Z,92.51
2022-11-24T09:55:34.757Z,92.25
2022-11-24T09:58:27.573Z,91.63
2022-11-24T10:00:56.239Z,89.14
2022-11-24T10:03:50.538Z,90.24
2022-11-24T10:06:19.576Z,88.40
2022-11-24T10:09:10.612Z,88.93
2022-11-24T10:11:50.396Z,89.53
2022-11-24T10:14:33.584Z,89.33
2022-11-24T10:17:13.967Z,89.62
2022-11-24T10:19:49.659Z,88.43
2022-11-24T10:22:34.603Z,87.15
2022-11-24T10:25:22.272Z,86.99
2022-11-24T10:28:17.855Z,85.21
2022-11-24T10:30:44.597Z,84.05
2022-11-24T10:33:28.710Z,84.71
2022-11-24T10:36:20.177Z,83.37
2022-11-24T10:39:02.809Z,82.78
2022-11-24T10:41:49.528Z,82.90
2022-11-24T10:44:16.178Z,81.08
2022-11-24T10:46:42.910Z,80.49
2022-11-24T10:49:18.803Z,80.73
2022-11-24T10:52:01.275Z,81.52
2022-11-24T10:54:28.070Z,79.73
2022-11-24T10:56:55.365Z,79.38
2022-11-24T10:59:24.781Z,77.93
2022-11-24T11:01:52.952Z,77.80
2022-11-24T11:04:33.143Z,77.89
2022-11-24T11:07:14.599Z,78.18
2022-11-24T11:09:41.242Z,76.98
2022-11-24T11:12:46.355Z,78.55
2022-11-24T11:15:24.700Z,78.27
2022-11-24T11:17:54.459Z,77.50
2022-11-24T11:20:35.041Z,77.41
2022-11-24T11:23:14.446Z,76.36
2022-11-24T11:25:41.270Z,75.43
2022-11-24T11:28:28.205Z,76.78
2022-11-24T11:31:22.424Z,76.02
2022-11-24T11:34:25.042Z,76.92
2022-11-24T11:36:59.844Z,75.61
2022-11-24T11:39:41.385Z,76.52
2022-11-24T11:45:50.976Z,77.12
2022-11-24T11:48:42.751Z,77.40
2022-11-24T11:51:42.450Z,78.06
2022-11-24T11:54:38.106Z,77.60
2022-11-24T11:57:11.652Z,77.33
2022-11-24T11:59:53.281Z,77.25
2022-11-24T12:02:28.885Z,77.08
2022-11-24T12:04:55.345Z,75.88
2022-11-24T12:07:27.868Z,76.80
2022-11-24T12:10:09.473Z,76.79
2022-11-24T12:12:57.400Z,76.87
2022-11-24T12:15:30.023Z,76.01
2022-11-24T12:18:55.743Z,75.90
2022-11-24T12:21:26.587Z,75.68
2022-11-24T12:24:36.610Z,76.13
2022-11-24T12:27:26.313Z,75.74
2022-11-24T12:30:09.576Z,75.29
2022-11-24T12:33:04.938Z,76.14
2022-11-24T12:35:47.726Z,76.12
2022-11-24T12:38:50.291Z,75.66
2022-11-24T12:41:42.666Z,75.89
2022-11-24T12:44:32.863Z,75.49
2022-11-24T12:47:22.867Z,74.22
2022-11-24T12:49:51.981Z,72.64
2022-11-24T12:52:23.180Z,72.53
2022-11-24T12:54:49.713Z,72.35
2022-11-24T12:57:36.394Z,73.18
2022-11-24T13:00:15.546Z,72.70
2022-11-24T13:02:57.534Z,72.49
2022-11-24T13:05:37.254Z,73.71
2022-11-24T13:08:05.263Z,71.97
2022-11-24T13:13:26.381Z,72.03
2022-11-24T13:16:07.057Z,71.89
2022-11-24T13:19:08.591Z,72.04
2022-11-24T13:21:41.401Z,72.20
2022-11-24T13:24:17.656Z,72.64
2022-11-24T13:26:51.264Z,72.64
2022-11-24T13:29:37.386Z,72.62
2022-11-24T13:32:06.579Z,72.06
2022-11-24T13:34:39.299Z,72.19
2022-11-24T13:37:34.896Z,72.57
2022-11-24T13:40:22.692Z,71.86
2022-11-24T13:42:55.216Z,71.94
2022-11-24T13:45:41.493Z,72.35
2022-11-24T13:48:20.342Z,72.30
2022-11-24T13:50:49.910Z,72.52
2022-11-24T13:53:43.918Z,72.74
2022-11-24T13:56:13.483Z,72.41
2022-11-24T13:58:43.494Z,72.63
2022-11-24T14:01:28.398Z,73.05
2022-11-24T14:07:09.381Z,73.15
2022-11-24T14:09:47.980Z,73.51
2022-11-24T14:12:22.214Z,73.41
2022-11-24T14:14:51.120Z,73.04
2022-11-24T14:17:23.777Z,73.46
2022-11-24T14:19:53.349Z,73.24
2022-11-24T14:22:21.541Z,73.40
2022-11-24T14:24:55.673Z,73.96
2022-11-24T14:27:29.146Z,73.86
2022-11-24T14:30:01.803Z,73.93
2022-11-24T14:32:28.895Z,73.50
2022-11-24T14:34:56.803Z,73.76
2022-11-24T14:37:23.498Z,73.92
2022-11-24T14:39:49.948Z,73.95
2022-11-24T14:42:25.278Z,74.84
2022-11-24T14:45:00.376Z,74.95
2022-11-24T14:47:38.886Z,75.04
2022-11-24T14:50:15.332Z,75.33
2022-11-24T14:52:56.402Z,75.50
2022-11-24T14:55:25.588Z,74.94
2022-11-24T14:57:52.122Z,74.75
2022-11-24T15:00:27.617Z,75.04
2022-11-24T15:02:55.261Z,75.01
2022-11-24T15:05:25.458Z,75.36
2022-11-24T15:07:59.597Z,75.35
2022-11-24T15:10:35.137Z,75.55
2022-11-24T15:13:05.333Z,75.29
2022-11-24T15:15:58.983Z,76.18
2022-11-24T15:18:37.838Z,75.73
2022-11-24T15:21:04.466Z,75.22
2022-11-24T15:23:32.598Z,75.33
2022-11-24T15:26:02.122Z,75.66
2022-11-24T15:28:30.199Z,75.25
2022-11-24T15:31:01.329Z,75.60
2022-11-24T15:33:28.692Z,75.33
2022-11-24T15:35:55.227Z,75.29
2022-11-24T15:38:22.679Z,75.29
2022-11-24T15:40:51.861Z,75.62
2022-11-24T15:43:21.279Z,75.53
2022-11-24T15:45:47.751Z,75.38
2022-11-24T15:48:17.895Z,75.95
2022-11-24T15:50:46.221Z,75.86
2022-11-24T15:53:20.340Z,76.44
2022-11-24T15:55:47.427Z,75.83
2022-11-24T15:58:14.697Z,75.82
2022-11-24T16:00:41.825Z,75.75
2022-11-24T16:03:44.344Z,75.83
2022-11-24T16:05:57.037Z,75.53
2022-11-24T16:08:23.533Z,75.46
2022-11-24T16:10:50.018Z,75.43
2022-11-24T16:13:16.528Z,74.79
2022-11-24T16:15:42.981Z,75.01
2022-11-24T16:18:09.510Z,75.19
2022-11-24T16:20:36.137Z,75.08
2022-11-24T16:23:04.084Z,75.13
2022-11-24T16:25:30.735Z,75.35
2022-11-24T16:27:57.600Z,75.74
2022-11-24T16:30:24.030Z,76.45
2022-11-24T16:32:50.444Z,77.01
2022-11-24T16:35:17.059Z,77.59
2022-11-24T16:37:43.553Z,77.95
2022-11-24T16:40:10.439Z,78.68
2022-11-24T16:42:36.913Z,78.49
2022-11-24T16:45:04.101Z,79.30
2022-11-24T16:47:30.546Z,79.69
2022-11-24T16:49:57.102Z,79.49
2022-11-24T16:52:23.681Z,79.74
2022-11-24T16:54:50.228Z,80.83
2022-11-24T16:57:16.730Z,81.31
2022-11-24T16:59:43.489Z,81.36
2022-11-24T17:02:12.360Z,81.80
2022-11-24T17:04:39.135Z,82.10
2022-11-24T17:07:05.592Z,82.32
2022-11-24T17:09:37.385Z,82.48
2022-11-24T17:12:06.767Z,83.20
2022-11-24T17:14:33.461Z,83.10
2022-11-24T17:17:00.219Z,83.14
2022-11-24T17:19:27.272Z,83.48
2022-11-24T17:21:54.523Z,84.04
2022-11-24T17:24:20.974Z,84.37
2022-11-24T17:26:50.006Z,85.09
2022-11-24T17:29:16.416Z,85.22
2022-11-24T17:31:42.880Z,86.54
2022-11-24T17:34:11.414Z,86.79
2022-11-24T17:36:38.680Z,87.27
2022-11-24T17:39:07.079Z,86.86
2022-11-24T17:41:34.144Z,87.76
2022-11-24T17:44:00.691Z,88.20
2022-11-24T17:46:28.831Z,88.00
2022-11-24T17:48:55.771Z,88.05
2022-11-24T17:51:24.540Z,88.12
2022-11-24T17:53:52.695Z,88.05
2022-11-24T17:56:23.335Z,88.15
2022-11-24T17:58:54.402Z,88.27
2022-11-24T18:01:21.965Z,88.15
2022-11-24T18:03:53.209Z,88.60
2022-11-24T18:06:20.597Z,88.85
2022-11-24T18:08:47.630Z,88.98
2022-11-24T18:11:19.816Z,89.25
2022-11-24T18:13:58.446Z,90.06
2022-11-24T18:16:28.189Z,90.40
2022-11-24T18:19:07.838Z,90.47
2022-11-24T18:21:39.391Z,90.46
2022-11-24T18:24:06.982Z,90.92
2022-11-24T18:26:33.487Z,91.18
2022-11-24T18:28:59.939Z,91.22
2022-11-24T18:31:26.530Z,91.09
2022-11-24T18:33:53.094Z,91.58
2022-11-24T18:36:23.556Z,90.83
2022-11-24T18:38:53.845Z,90.72
2022-11-24T18:41:21.534Z,90.51
2022-11-24T18:43:48.026Z,90.47
2022-11-24T18:46:17.093Z,90.13
2022-11-24T18:48:44.872Z,90.21
2022-11-24T18:51:14.958Z,90.06
2022-11-24T18:53:42.487Z,89.84
2022-11-24T18:56:13.576Z,90.20
2022-11-24T18:58:40.027Z,89.96
2022-11-24T19:01:16.504Z,89.72
2022-11-24T19:03:49.346Z,89.78
2022-11-24T19:06:21.260Z,90.03
2022-11-24T19:08:48.954Z,89.64
2022-11-24T19:11:21.220Z,89.89
2022-11-24T19:13:49.052Z,89.35
2022-11-24T19:16:17.312Z,89.45
2022-11-24T19:18:47.515Z,89.31
2022-11-24T19:21:17.885Z,89.44
2022-11-24T19:23:44.647Z,89.89
2022-11-24T19:26:11.358Z,89.54
2022-11-24T19:28:37.747Z,89.84
2022-11-24T19:31:07.779Z,89.78
2022-11-24T19:33:34.926Z,90.02
2022-11-24T19:36:03.828Z,90.02
2022-11-24T19:38:32.114Z,90.35
2022-11-24T19:41:09.437Z,90.82
2022-11-24T19:43:36.143Z,91.09
2022-11-24T19:46:10.641Z,91.40
2022-11-24T19:48:43.161Z,91.89
2022-11-24T19:51:15.098Z,91.68
2022-11-24T19:53:41.760Z,91.28
2022-11-24T19:56:11.637Z,91.38
2022-11-24T19:58:38.923Z,91.32
2022-11-24T20:01:16.409Z,90.69
2022-11-24T20:03:44.297Z,90.69
2022-11-24T20:06:13.098Z,90.38
2022-11-24T20:08:40.783Z,90.18
2022-11-24T20:11:16.499Z,90.29
2022-11-24T20:13:45.143Z,89.58
2022-11-24T20:16:14.599Z,88.85
2022-11-24T20:18:44.572Z,88.30
2022-11-24T20:21:21.652Z,88.29
2022-11-24T20:23:55.165Z,87.66
2022-11-24T20:26:23.244Z,86.43
2022-11-24T20:28:51.549Z,85.91
2022-11-24T20:31:21.760Z,85.63
2022-11-24T20:33:48.151Z,86.41
2022-11-24T20:36:18.424Z,85.85
2022-11-24T20:38:45.271Z,85.99
2022-11-24T20:41:20.229Z,86.20
2022-11-24T20:43:47.401Z,85.85
2022-11-24T20:46:16.908Z,86.44
2022-11-24T20:48:44.092Z,86.38
2022-11-24T20:51:13.372Z,86.97
2022-11-24T20:53:40.678Z,87.04
2022-11-24T20:56:10.875Z,86.83
2022-11-24T20:58:37.688Z,87.37
2022-11-24T21:01:09.842Z,86.79
2022-11-24T21:03:42.576Z,86.66
2022-11-24T21:06:10.692Z,86.47
2022-11-24T21:08:38.970Z,86.56
2022-11-24T21:11:07.344Z,86.58
2022-11-24T21:13:35.333Z,87.35
2022-11-24T21:16:18.260Z,88.12
2022-11-24T21:18:46.861Z,87.57
2022-11-24T21:21:14.471Z,87.82
2022-11-24T21:23:40.886Z,87.96
2022-11-24T21:26:11.670Z,88.28
2022-11-24T21:28:42.020Z,88.15
2022-11-24T21:31:14.660Z,88.66
2022-11-24T21:33:43.059Z,88.70
2022-11-24T21:36:09.559Z,88.66
2022-11-24T21:38:36.123Z,89.15
2022-11-24T21:41:05.557Z,89.57
2022-11-24T21:43:32.937Z,89.48
2022-11-24T21:46:03.478Z,89.86
2022-11-24T21:48:31.241Z,89.21
2022-11-24T21:50:59.499Z,88.89
2022-11-24T21:53:26.861Z,88.39
2022-11-24T21:55:58.176Z,88.25
2022-11-24T21:58:25.556Z,87.78
2022-11-24T22:00:52.871Z,87.59
2022-11-24T22:03:20.483Z,87.40
2022-11-24T22:05:54.295Z,88.13
2022-11-24T22:08:21.569Z,87.39
2022-11-24T22:10:48.218Z,87.16
2022-11-24T22:13:15.066Z,87.15
2022-11-24T22:15:41.538Z,87.28
2022-11-24T22:18:08.103Z,87.13
2022-11-24T22:20:35.363Z,87.41
2022-11-24T22:23:01.885Z,87.59
2022-11-24T22:25:28.290Z,87.84
2022-11-24T22:27:54.738Z,87.91
2022-11-24T22:30:21.177Z,88.24
2022-11-24T22:32:47.597Z,88.47
2022-11-24T22:35:14.129Z,88.53
2022-11-24T22:37:40.517Z,88.59
2022-11-24T22:40:07.880Z,88.38
2022-11-24T22:42:34.325Z,88.20
2022-11-24T22:45:00.689Z,88.61
2022-11-24T22:47:27.397Z,88.39
2022-11-24T22:49:53.880Z,88.73
2022-11-24T22:52:20.285Z,88.86
2022-11-24T22:54:46.774Z,88.71
2022-11-24T22:57:13.151Z,88.92
2022-11-24T22:59:39.543Z,88.77
2022-11-24T23:02:06.004Z,88.81
2022-11-24T23:04:32.500Z,88.73
2022-11-24T23:06:58.953Z,88.83
2022-11-24T23:09:25.356Z,88.86
2022-11-24T23:11:51.827Z,89.14
2022-11-24T23:14:19.165Z,89.11
2022-11-24T23:16:45.660Z,89.40
2022-11-24T23:19:12.480Z,89.41
2022-11-24T23:21:39.207Z,89.83
2022-11-24T23:24:06.457Z,90.09
2022-11-24T23:26:36.168Z,90.37
2022-11-24T23:29:04.059Z,90.39
2022-11-24T23:31:31.011Z,90.64
2022-11-24T23:34:02.521Z,90.74
2022-11-24T23:36:30.115Z,90.54
2022-11-24T23:39:00.796Z,90.56
2022-11-24T23:41:29.914Z,91.00
2022-11-24T23:43:56.433Z,91.04
2022-11-24T23:46:25.498Z,91.21
2022-11-24T23:48:53.743Z,91.26
2022-11-24T23:51:25.847Z,91.75
2022-11-24T23:53:53.054Z,91.69
2022-11-24T23:56:21.422Z,91.86
2022-11-24T23:58:47.936Z,92.13
